Alva, Oklahoma
Current Conditions -  °F | °C
As of 4:35 PM on Sunday 21 Dec 2014 (Local Time) from KAVK Reporting Station
Haze Haze  
Wind Chill: 41°   Ceiling: 1600
Heat Index: 46°   Visibility: 5mi
Dew Point: 46°   Wind: 13mph
Humidity: 100%   Direction: 150°SSE
Pressure: 29.7"   Gusts: NA
Location:  36.8°N, 98.67°W
Report Text: KAVK 212235Z AUTO 15011KT 5SM BR SCT008 BKN016 OVC033 08/08 A2970 RMK AO2
Loading
Personal Weather Stations






























Interactive Weather Map New forecast layout! Learn more

10-Day Weather Forecast

Advertisements
Track Severe Weather on mobile